Time;durP1;ratioP1;P1;durP2;ratioP2;P2;SDS_P1;SDS_P2;PMS_P1;PMS_P2;Temp;Humidity;BMP_temperature;BMP_pressure;BME280_temperature;BME280_humidity;BME280_pressure;Samples;Min_cycle;Max_cycle;Signal;HPM_P1;HPM_P2
2022/09/01 20:15:11;;;;;;;4.62;1.85;;;;;;;;;;4494613;31;20058;-66
2022/09/01 20:17:36;;;;;;;2.17;1.58;;;;;;;;;;4479149;32;20021;-67
2022/09/01 20:20:15;;;;;;;3.17;1.67;;;;;;;;;;4479165;32;20057;-64
2022/09/01 20:22:40;;;;;;;4.87;1.83;;;;;;;;;;4479033;32;20029;-66
2022/09/01 20:25:13;;;;;;;6.40;1.80;;;;;;;;;;4478738;32;20043;-68
2022/09/01 20:27:58;;;;;;;4.65;1.50;;;;;;;;;;4478655;32;20149;-68
2022/09/01 20:30:26;;;;;;;2.03;1.45;;;;;;;;;;4479285;32;20056;-68
2022/09/01 20:33:01;;;;;;;5.15;1.90;;;;;;;;;;4479392;32;20033;-68
2022/09/01 20:35:39;;;;;;;3.30;1.60;;;;;;;;;;4478341;32;20045;-68
2022/09/01 20:39:58;;;;;;;2.75;1.52;;;;;;;;;;4476749;32;20037;-68
2022/09/01 20:40:53;;;;;;;2.97;1.55;;;;;;;;;;4463074;32;20447;-68
2022/09/01 20:43:21;;;;;;;3.10;1.87;;;;;;;;;;4463378;32;20138;-68
2022/09/01 20:45:47;;;;;;;4.70;1.80;;;;;;;;;;4462793;32;20652;-68
2022/09/01 20:48:18;;;;;;;2.33;1.70;;;;;;;;;;4463075;32;20029;-68
2022/09/01 20:50:59;;;;;;;2.67;1.75;;;;;;;;;;4463476;32;20067;-68
2022/09/01 20:53:45;;;;;;;3.78;1.80;;;;;;;;;;4463527;32;20025;-64
2022/09/01 20:56:29;;;;;;;6.05;1.60;;;;;;;;;;4462720;32;20357;-64
2022/09/01 20:59:00;;;;;;;4.70;1.70;;;;;;;;;;4463354;32;20456;-62
2022/09/01 21:01:33;;;;;;;5.72;1.80;;;;;;;;;;4463170;32;20044;-62
2022/09/01 21:04:17;;;;;;;4.32;2.08;;;;;;;;;;4463168;32;20326;-63
2022/09/01 21:06:53;;;;;;;2.55;1.80;;;;;;;;;;4462919;32;20052;-63
2022/09/01 21:09:33;;;;;;;4.43;1.73;;;;;;;;;;4462769;32;20409;-66
2022/09/01 21:12:21;;;;;;;9.77;1.90;;;;;;;;;;4464193;32;20101;-65
2022/09/01 21:14:57;;;;;;;5.25;1.62;;;;;;;;;;4440897;32;20533;-64
2022/09/01 21:17:41;;;;;;;2.83;1.60;;;;;;;;;;4478045;32;20050;-66
2022/09/01 21:20:25;;;;;;;2.37;1.73;;;;;;;;;;4478856;32;20029;-66
2022/09/01 21:22:53;;;;;;;4.22;1.80;;;;;;;;;;4477791;32;20033;-67
2022/09/01 21:25:18;;;;;;;2.80;1.48;;;;;;;;;;4471513;32;20480;-67
2022/09/01 21:27:50;;;;;;;1.90;1.27;;;;;;;;;;4467753;32;20028;-67
2022/09/01 21:30:15;;;;;;;2.72;1.70;;;;;;;;;;4467355;32;20131;-67
2022/09/01 21:32:41;;;;;;;4.15;1.70;;;;;;;;;;4468773;32;20112;-67
2022/09/01 21:35:07;;;;;;;4.85;2.17;;;;;;;;;;4468015;32;20096;-67
2022/09/01 21:37:32;;;;;;;4.03;1.90;;;;;;;;;;4466992;32;20068;-67
2022/09/01 21:40:00;;;;;;;2.87;1.95;;;;;;;;;;4467740;32;20450;-67
2022/09/01 21:42:46;;;;;;;2.25;1.52;;;;;;;;;;4467374;32;20116;-67
2022/09/01 21:45:13;;;;;;;7.37;2.00;;;;;;;;;;4467163;32;20040;-67
2022/09/01 21:47:39;;;;;;;2.72;1.77;;;;;;;;;;4467423;32;20033;-67
2022/09/01 21:50:05;;;;;;;3.42;1.90;;;;;;;;;;4467630;32;20021;-67
2022/09/01 21:52:30;;;;;;;2.70;1.65;;;;;;;;;;4467122;32;20058;-67
2022/09/01 21:54:55;;;;;;;3.03;1.60;;;;;;;;;;4467302;32;20025;-72
2022/09/01 21:57:23;;;;;;;7.00;1.75;;;;;;;;;;4466635;32;20504;-75
2022/09/01 21:59:48;;;;;;;5.03;1.87;;;;;;;;;;4451347;32;20029;-75
2022/09/01 22:02:14;;;;;;;4.75;1.85;;;;;;;;;;4451671;32;20063;-72
2022/09/01 22:04:39;;;;;;;1.92;1.60;;;;;;;;;;4462103;32;20055;-73
2022/09/01 22:07:10;;;;;;;2.03;1.50;;;;;;;;;;4466819;32;20028;-73
2022/09/01 22:09:36;;;;;;;6.05;1.87;;;;;;;;;;4466875;32;20785;-73
2022/09/01 22:12:01;;;;;;;3.63;1.50;;;;;;;;;;4465249;32;20021;-74
2022/09/01 22:14:28;;;;;;;5.20;1.42;;;;;;;;;;4466666;32;20192;-73
2022/09/01 22:16:53;;;;;;;2.17;1.73;;;;;;;;;;4467019;32;20065;-73
2022/09/01 22:19:18;;;;;;;3.28;1.90;;;;;;;;;;4466586;32;20051;-73
2022/09/01 22:21:43;;;;;;;2.60;1.50;;;;;;;;;;4467061;32;20072;-73
2022/09/01 22:24:08;;;;;;;2.95;1.67;;;;;;;;;;4467745;32;20139;-73
2022/09/01 22:26:34;;;;;;;3.90;1.40;;;;;;;;;;4466374;32;20330;-73
2022/09/01 22:29:01;;;;;;;2.53;1.40;;;;;;;;;;4466949;32;20060;-74
2022/09/01 22:31:27;;;;;;;1.90;1.40;;;;;;;;;;4467018;32;20044;-73
2022/09/01 22:33:55;;;;;;;4.90;1.85;;;;;;;;;;4466049;32;20033;-74
2022/09/01 22:36:25;;;;;;;2.10;1.27;;;;;;;;;;4465744;32;20045;-74
2022/09/01 22:38:50;;;;;;;2.92;1.50;;;;;;;;;;4451279;32;20037;-74
2022/09/01 22:41:16;;;;;;;3.75;1.30;;;;;;;;;;4450727;32;20016;-74
2022/09/01 22:43:41;;;;;;;2.80;1.60;;;;;;;;;;4450977;32;20378;-74
2022/09/01 22:46:06;;;;;;;1.97;1.40;;;;;;;;;;4451507;32;20076;-73
2022/09/01 22:48:31;;;;;;;2.83;1.60;;;;;;;;;;4450629;32;20150;-73
2022/09/01 22:50:56;;;;;;;1.83;1.40;;;;;;;;;;4450790;32;20089;-73
2022/09/01 22:53:22;;;;;;;2.85;1.40;;;;;;;;;;4450761;32;20155;-74
2022/09/01 22:55:48;;;;;;;2.92;1.30;;;;;;;;;;4450450;32;20124;-73
2022/09/01 22:58:14;;;;;;;2.58;1.37;;;;;;;;;;4450457;32;20140;-73
2022/09/01 23:00:44;;;;;;;1.75;1.23;;;;;;;;;;4449584;32;20374;-74
2022/09/01 23:03:13;;;;;;;1.77;1.40;;;;;;;;;;4450786;32;20070;-74
2022/09/01 23:05:39;;;;;;;1.83;1.60;;;;;;;;;;4450345;32;20057;-74
2022/09/01 23:08:04;;;;;;;2.72;1.20;;;;;;;;;;4450378;32;20443;-74
2022/09/01 23:10:29;;;;;;;1.85;1.25;;;;;;;;;;4450467;32;20453;-74
2022/09/01 23:12:57;;;;;;;2.07;1.33;;;;;;;;;;4450722;32;20397;-73
2022/09/01 23:15:22;;;;;;;6.95;1.52;;;;;;;;;;4450466;32;20128;-73
2022/09/01 23:17:47;;;;;;;1.70;1.37;;;;;;;;;;4461831;32;20063;-74
2022/09/01 23:20:13;;;;;;;3.10;1.50;;;;;;;;;;4466344;32;20060;-73
2022/09/01 23:22:39;;;;;;;2.85;1.52;;;;;;;;;;4465636;32;20603;-74
2022/09/01 23:25:05;;;;;;;4.32;1.40;;;;;;;;;;4466026;32;20060;-74
2022/09/01 23:27:30;;;;;;;1.12;1.02;;;;;;;;;;4466175;32;20405;-74
2022/09/01 23:29:56;;;;;;;1.70;1.23;;;;;;;;;;4466148;32;20047;-74
2022/09/01 23:32:21;;;;;;;1.73;1.25;;;;;;;;;;4465759;32;20048;-74
2022/09/01 23:34:47;;;;;;;2.85;1.55;;;;;;;;;;4466193;32;20420;-74
2022/09/01 23:37:12;;;;;;;2.12;1.12;;;;;;;;;;4465595;32;20051;-74
2022/09/01 23:39:37;;;;;;;2.30;1.30;;;;;;;;;;4466311;32;20040;-73
2022/09/01 23:42:02;;;;;;;1.55;1.10;;;;;;;;;;4465806;32;20080;-74
2022/09/01 23:44:28;;;;;;;3.03;1.30;;;;;;;;;;4461451;32;20373;-74
2022/09/01 23:46:54;;;;;;;1.50;1.17;;;;;;;;;;4450600;32;20042;-74
2022/09/01 23:49:19;;;;;;;3.17;1.40;;;;;;;;;;4450522;32;20043;-74
2022/09/01 23:51:45;;;;;;;1.65;1.00;;;;;;;;;;4449567;32;20026;-74
2022/09/01 23:54:12;;;;;;;2.05;1.20;;;;;;;;;;4450817;32;20048;-74
2022/09/01 23:56:37;;;;;;;1.27;1.12;;;;;;;;;;4450431;32;20059;-73
2022/09/01 23:59:03;;;;;;;2.35;1.40;;;;;;;;;;4449571;32;20356;-73
